createdAt,value
2018-12-12T00:00:17.796Z,3.80
2018-12-12T00:03:24.108Z,3.80
2018-12-12T00:06:30.377Z,3.90
2018-12-12T00:09:36.725Z,3.80
2018-12-12T00:12:43.839Z,3.80
2018-12-12T00:15:50.076Z,3.90
2018-12-12T00:18:56.373Z,4.00
2018-12-12T00:22:02.649Z,3.90
2018-12-12T00:25:09.097Z,3.90
2018-12-12T00:28:15.642Z,4.00
2018-12-12T00:31:21.842Z,4.10
2018-12-12T00:34:28.087Z,4.00
2018-12-12T00:37:34.426Z,4.00
2018-12-12T00:40:40.670Z,3.90
2018-12-12T00:43:47.665Z,3.90
2018-12-12T00:46:53.964Z,3.90
2018-12-12T00:50:00.228Z,3.80
2018-12-12T00:53:06.542Z,3.60
2018-12-12T00:56:12.726Z,3.50
2018-12-12T00:59:19.706Z,3.50
2018-12-12T01:02:26.082Z,3.60
2018-12-12T01:05:32.354Z,3.60
2018-12-12T01:08:38.653Z,3.60
2018-12-12T01:11:50.202Z,3.60
2018-12-12T01:14:56.589Z,3.60
2018-12-12T01:18:03.060Z,3.60
2018-12-12T01:21:09.391Z,3.70
2018-12-12T01:24:15.762Z,3.70
2018-12-12T01:27:22.090Z,3.70
2018-12-12T01:30:28.358Z,3.70
2018-12-12T01:33:34.803Z,3.60
2018-12-12T01:36:41.069Z,3.70
2018-12-12T01:39:47.597Z,3.70
2018-12-12T01:42:53.923Z,3.70
2018-12-12T01:46:00.162Z,3.60
2018-12-12T01:49:06.505Z,3.60
2018-12-12T01:52:12.712Z,3.50
2018-12-12T01:55:18.947Z,3.50
2018-12-12T01:58:25.225Z,3.40
2018-12-12T02:01:31.874Z,3.20
2018-12-12T02:04:38.193Z,3.10
2018-12-12T02:07:44.847Z,3.00
2018-12-12T02:10:51.517Z,3.00
2018-12-12T02:13:58.130Z,3.20
2018-12-12T02:17:04.490Z,3.40
2018-12-12T02:20:10.763Z,3.50
2018-12-12T02:23:17.051Z,3.50
2018-12-12T02:26:23.389Z,3.60
2018-12-12T02:29:29.593Z,3.60
2018-12-12T02:32:36.629Z,3.40
2018-12-12T02:35:42.941Z,3.30
2018-12-12T02:38:49.260Z,3.40
2018-12-12T02:41:55.686Z,3.40
2018-12-12T02:45:01.981Z,3.50
2018-12-12T02:48:09.697Z,3.50
2018-12-12T02:51:16.026Z,3.60
2018-12-12T02:54:22.993Z,3.60
2018-12-12T02:57:29.404Z,3.70
2018-12-12T03:00:35.905Z,3.70
2018-12-12T03:03:42.277Z,3.70
2018-12-12T03:06:48.564Z,3.70
2018-12-12T03:09:54.847Z,3.70
2018-12-12T03:13:01.182Z,3.50
2018-12-12T03:16:07.625Z,3.50
2018-12-12T03:19:14.778Z,3.70
2018-12-12T03:22:21.433Z,3.60
2018-12-12T03:25:27.824Z,3.80
2018-12-12T03:28:34.133Z,3.80
2018-12-12T03:31:40.527Z,3.70
2018-12-12T03:34:46.887Z,3.80
2018-12-12T03:37:53.342Z,3.50
2018-12-12T03:40:59.822Z,3.50
2018-12-12T03:44:06.801Z,3.60
2018-12-12T03:47:13.206Z,3.80
2018-12-12T03:50:19.723Z,3.90
2018-12-12T03:53:26.143Z,3.80
2018-12-12T03:56:32.389Z,3.70
2018-12-12T03:59:38.548Z,3.80
2018-12-12T04:02:44.650Z,3.70
2018-12-12T04:05:51.719Z,3.60
2018-12-12T04:08:58.043Z,3.40
2018-12-12T04:12:04.381Z,3.30
2018-12-12T04:15:10.813Z,3.50
2018-12-12T04:18:17.092Z,3.60
2018-12-12T04:21:24.100Z,3.70
2018-12-12T04:24:30.611Z,3.70
2018-12-12T04:27:36.849Z,3.60
2018-12-12T04:30:43.201Z,3.70
2018-12-12T04:33:49.521Z,3.70
2018-12-12T04:36:56.070Z,3.80
2018-12-12T04:40:02.428Z,3.80
2018-12-12T04:43:08.682Z,3.80
2018-12-12T04:46:14.980Z,3.70
2018-12-12T04:49:21.563Z,3.60
2018-12-12T04:52:28.402Z,3.50
2018-12-12T04:55:34.690Z,3.40
2018-12-12T04:58:40.910Z,3.40
2018-12-12T05:01:47.256Z,3.20
2018-12-12T05:04:55.008Z,3.10
2018-12-12T05:08:01.681Z,3.00
2018-12-12T05:11:07.900Z,3.00
2018-12-12T05:14:14.180Z,3.10
2018-12-12T05:17:20.489Z,3.20
2018-12-12T05:20:26.783Z,3.40
2018-12-12T05:23:33.489Z,3.60
2018-12-12T05:26:39.708Z,3.70
2018-12-12T05:29:46.297Z,3.50
2018-12-12T05:32:52.653Z,3.30
2018-12-12T05:35:58.923Z,3.20
2018-12-12T05:39:07.504Z,3.10
2018-12-12T05:42:13.861Z,3.20
2018-12-12T05:45:20.959Z,3.10
2018-12-12T05:48:27.288Z,3.10
2018-12-12T05:51:33.556Z,3.30
2018-12-12T05:54:39.920Z,3.40
2018-12-12T05:57:46.266Z,3.40
2018-12-12T06:00:52.618Z,3.40
2018-12-12T06:03:58.868Z,3.40
2018-12-12T06:07:05.293Z,3.40
2018-12-12T06:10:12.486Z,3.50
2018-12-12T06:13:18.958Z,3.50
2018-12-12T06:16:25.515Z,3.50
2018-12-12T06:19:31.800Z,3.60
2018-12-12T06:22:38.277Z,3.50
2018-12-12T06:25:44.615Z,3.40
2018-12-12T06:28:50.902Z,3.30
2018-12-12T06:31:57.474Z,3.20
2018-12-12T06:35:04.102Z,3.20
2018-12-12T06:38:10.413Z,3.10
2018-12-12T06:41:16.664Z,3.20
2018-12-12T06:44:23.157Z,3.10
2018-12-12T06:47:29.430Z,3.00
2018-12-12T06:50:35.820Z,3.10
2018-12-12T06:53:42.158Z,3.20
2018-12-12T06:56:49.397Z,3.20
2018-12-12T06:59:55.791Z,3.10
2018-12-12T07:03:01.865Z,3.10
2018-12-12T07:06:08.299Z,3.20
2018-12-12T07:09:14.733Z,3.30
2018-12-12T07:12:21.846Z,3.30
2018-12-12T07:15:28.089Z,3.40
2018-12-12T07:18:34.324Z,3.40
2018-12-12T07:21:40.704Z,3.40
2018-12-12T07:24:47.261Z,3.40
2018-12-12T07:27:54.372Z,3.30
2018-12-12T07:31:00.599Z,3.30
2018-12-12T07:34:07.063Z,3.20
2018-12-12T07:37:13.385Z,3.40
2018-12-12T07:40:19.754Z,3.40
2018-12-12T07:43:26.724Z,3.40
2018-12-12T07:46:33.158Z,3.30
2018-12-12T07:49:39.672Z,3.20
2018-12-12T07:52:45.978Z,3.30
2018-12-12T07:55:52.269Z,3.20
2018-12-12T07:58:59.393Z,3.20
2018-12-12T08:02:05.716Z,3.40
2018-12-12T08:05:12.076Z,3.40
2018-12-12T08:08:18.344Z,3.30
2018-12-12T08:11:24.668Z,3.20
2018-12-12T08:14:31.678Z,3.10
2018-12-12T08:17:38.031Z,3.00
2018-12-12T08:20:44.343Z,3.10
2018-12-12T08:23:50.551Z,3.30
2018-12-12T08:26:56.944Z,3.50
2018-12-12T08:30:03.695Z,3.70
2018-12-12T08:33:11.285Z,3.70
2018-12-12T08:36:17.979Z,3.60
2018-12-12T08:39:24.199Z,3.60
2018-12-12T08:42:30.470Z,3.50
2018-12-12T08:45:36.861Z,3.40
2018-12-12T08:48:43.126Z,3.50
2018-12-12T08:51:49.496Z,3.50
2018-12-12T08:54:55.777Z,3.60
2018-12-12T08:58:02.247Z,3.50
2018-12-12T09:01:08.448Z,3.60
2018-12-12T09:04:14.655Z,3.90
2018-12-12T09:07:21.171Z,3.80
2018-12-12T09:10:27.583Z,3.90
2018-12-12T09:13:33.935Z,4.00
2018-12-12T09:16:40.304Z,4.10
2018-12-12T09:19:46.714Z,4.10
2018-12-12T09:22:52.781Z,4.10
2018-12-12T09:25:58.884Z,4.00
2018-12-12T09:29:04.964Z,3.90
2018-12-12T09:32:12.146Z,3.90
2018-12-12T09:35:18.297Z,4.00
2018-12-12T09:38:24.536Z,4.10
2018-12-12T09:41:30.674Z,4.00
2018-12-12T09:44:36.937Z,4.10
2018-12-12T09:47:44.120Z,4.10
2018-12-12T09:50:50.676Z,3.90
2018-12-12T09:53:57.025Z,4.10
2018-12-12T09:57:03.333Z,4.00
2018-12-12T10:00:10.406Z,4.00
2018-12-12T10:03:17.371Z,4.00
2018-12-12T10:06:23.691Z,3.80
2018-12-12T10:09:30.132Z,3.90
2018-12-12T10:12:36.510Z,4.20
2018-12-12T10:15:42.934Z,4.20
2018-12-12T10:18:49.460Z,4.10
2018-12-12T10:21:56.306Z,4.30
2018-12-12T10:25:02.773Z,4.40
2018-12-12T10:28:09.064Z,4.40
2018-12-12T10:31:15.291Z,4.30
2018-12-12T10:34:22.742Z,4.30
2018-12-12T10:37:28.859Z,4.30
2018-12-12T10:40:35.061Z,4.10
2018-12-12T10:43:41.508Z,3.90
2018-12-12T10:46:47.908Z,3.80
2018-12-12T10:49:54.955Z,3.70
2018-12-12T10:53:01.235Z,3.80
2018-12-12T10:56:07.832Z,4.10
2018-12-12T10:59:14.485Z,4.40
2018-12-12T11:02:26.141Z,4.50
2018-12-12T11:05:32.566Z,4.60
2018-12-12T11:08:39.085Z,4.70
2018-12-12T11:11:45.691Z,4.40
2018-12-12T11:14:52.104Z,4.30
2018-12-12T11:17:58.544Z,4.30
2018-12-12T11:21:05.014Z,4.20
2018-12-12T11:24:11.333Z,4.00
2018-12-12T11:27:17.754Z,3.90
2018-12-12T11:30:24.029Z,3.80
2018-12-12T11:33:30.727Z,3.60
2018-12-12T11:36:38.215Z,3.70
2018-12-12T11:39:44.560Z,3.70
2018-12-12T11:42:50.967Z,3.70
2018-12-12T11:45:57.478Z,3.70
2018-12-12T11:49:04.405Z,3.60
2018-12-12T11:52:10.903Z,3.60
2018-12-12T11:55:17.437Z,3.60
2018-12-12T11:58:23.784Z,3.60
2018-12-12T12:01:30.114Z,3.60
2018-12-12T12:04:36.731Z,3.50
2018-12-12T12:07:43.099Z,3.50
2018-12-12T12:10:49.416Z,3.50
2018-12-12T12:13:55.639Z,3.60
2018-12-12T12:17:01.979Z,3.60
2018-12-12T12:20:09.194Z,3.70
2018-12-12T12:23:15.730Z,3.80
2018-12-12T12:26:22.493Z,3.70
2018-12-12T12:29:28.868Z,3.50
2018-12-12T12:32:35.374Z,3.40
2018-12-12T12:35:42.318Z,3.50
2018-12-12T12:38:48.625Z,3.60
2018-12-12T12:41:54.975Z,3.80
2018-12-12T12:45:01.280Z,3.90
2018-12-12T12:48:07.580Z,3.70
2018-12-12T12:51:14.415Z,3.50
2018-12-12T12:54:20.782Z,3.50
2018-12-12T12:57:27.084Z,3.50
2018-12-12T13:00:33.374Z,3.60
2018-12-12T13:03:39.674Z,3.60
2018-12-12T13:06:46.610Z,3.60
2018-12-12T13:09:53.154Z,3.70
2018-12-12T13:12:59.506Z,3.80
2018-12-12T13:16:05.746Z,3.80
2018-12-12T13:19:12.034Z,3.90
2018-12-12T13:22:19.634Z,4.00
2018-12-12T13:25:27.197Z,4.00
2018-12-12T13:28:33.524Z,3.90
2018-12-12T13:31:39.830Z,4.00
2018-12-12T13:34:46.186Z,4.00
2018-12-12T13:37:53.969Z,3.90
2018-12-12T13:41:00.799Z,4.00
2018-12-12T13:44:07.397Z,4.00
2018-12-12T13:47:17.216Z,3.90
2018-12-12T13:50:23.520Z,3.90
2018-12-12T13:53:29.894Z,3.90
2018-12-12T13:56:36.304Z,3.80
2018-12-12T13:59:42.779Z,3.80
2018-12-12T14:02:49.189Z,3.80
2018-12-12T14:05:56.293Z,3.80
2018-12-12T14:09:03.569Z,3.80
2018-12-12T14:12:09.943Z,3.80
2018-12-12T14:15:16.437Z,3.80
2018-12-12T14:18:22.821Z,3.80
2018-12-12T14:21:30.317Z,3.70
2018-12-12T14:24:36.771Z,3.80
2018-12-12T14:27:43.164Z,3.80
2018-12-12T14:30:49.563Z,3.80
2018-12-12T14:33:55.938Z,3.80
2018-12-12T14:37:03.529Z,3.80
2018-12-12T14:40:09.901Z,3.80
2018-12-12T14:43:16.473Z,3.80
2018-12-12T14:46:23.162Z,3.70
2018-12-12T14:49:29.524Z,3.60
2018-12-12T14:52:35.876Z,3.60
2018-12-12T14:55:42.213Z,3.60
2018-12-12T14:58:48.542Z,3.60
2018-12-12T15:01:54.876Z,3.50
2018-12-12T15:05:01.570Z,3.40
2018-12-12T15:08:07.932Z,3.40
2018-12-12T15:11:14.309Z,3.40
2018-12-12T15:14:20.583Z,3.40
2018-12-12T15:17:26.964Z,3.40
2018-12-12T15:20:38.741Z,3.30
2018-12-12T15:23:45.106Z,3.30
2018-12-12T15:26:51.535Z,3.30
2018-12-12T15:29:57.934Z,3.30
2018-12-12T15:33:04.449Z,3.30
2018-12-12T15:36:11.233Z,3.30
2018-12-12T15:39:18.183Z,3.30
2018-12-12T15:42:24.586Z,3.30
2018-12-12T15:45:31.237Z,3.30
2018-12-12T15:48:37.639Z,3.20
2018-12-12T15:51:45.003Z,3.20
2018-12-12T15:54:51.634Z,3.10
2018-12-12T15:57:58.040Z,3.00
2018-12-12T16:01:04.567Z,3.00
2018-12-12T16:04:10.909Z,3.00
2018-12-12T16:07:17.190Z,3.00
2018-12-12T16:10:23.706Z,2.90
2018-12-12T16:13:29.994Z,2.80
2018-12-12T16:16:36.507Z,2.80
2018-12-12T16:19:42.802Z,2.70
2018-12-12T16:22:49.302Z,2.70
2018-12-12T16:25:55.534Z,2.60
2018-12-12T16:29:01.707Z,2.60
2018-12-12T16:32:07.936Z,2.50
2018-12-12T16:35:14.189Z,2.50
2018-12-12T16:38:21.494Z,2.50
2018-12-12T16:41:27.704Z,2.50
2018-12-12T16:44:33.970Z,2.40
2018-12-12T16:47:40.189Z,2.40
2018-12-12T16:50:46.793Z,2.40
2018-12-12T16:53:53.752Z,2.40
2018-12-12T16:57:00.078Z,2.30
2018-12-12T17:00:08.228Z,2.20
2018-12-12T17:03:14.431Z,2.20
2018-12-12T17:06:20.705Z,2.20
2018-12-12T17:09:27.122Z,2.10
2018-12-12T17:12:33.383Z,2.00
2018-12-12T17:15:39.648Z,2.00
2018-12-12T17:18:45.867Z,2.00
2018-12-12T17:21:52.232Z,2.10
2018-12-12T17:24:59.029Z,2.20
2018-12-12T17:28:05.447Z,2.10
2018-12-12T17:31:11.839Z,2.10
2018-12-12T17:34:18.143Z,2.10
2018-12-12T17:37:24.431Z,2.20
2018-12-12T17:40:30.572Z,2.20
2018-12-12T17:43:36.930Z,2.30
2018-12-12T17:46:43.821Z,2.20
2018-12-12T17:49:49.994Z,2.00
2018-12-12T17:52:56.166Z,2.00
2018-12-12T17:56:02.862Z,2.10
2018-12-12T17:59:09.056Z,2.10
2018-12-12T18:02:15.655Z,2.20
2018-12-12T18:05:22.018Z,2.30
2018-12-12T18:08:28.430Z,2.30
2018-12-12T18:11:35.825Z,2.40
2018-12-12T18:14:42.005Z,2.30
2018-12-12T18:17:48.451Z,2.20
2018-12-12T18:20:54.667Z,2.10
2018-12-12T18:24:00.901Z,2.20
2018-12-12T18:27:07.837Z,2.10
2018-12-12T18:30:14.185Z,2.10
2018-12-12T18:33:20.715Z,2.10
2018-12-12T18:36:27.023Z,2.10
2018-12-12T18:39:33.295Z,2.10
2018-12-12T18:42:39.886Z,2.00
2018-12-12T18:45:46.264Z,2.00
2018-12-12T18:48:52.727Z,1.90
2018-12-12T18:51:59.042Z,1.90
2018-12-12T18:55:05.995Z,2.00
2018-12-12T18:58:13.006Z,2.20
2018-12-12T19:01:19.328Z,2.40
2018-12-12T19:04:25.535Z,2.30
2018-12-12T19:07:32.803Z,2.20
2018-12-12T19:10:39.144Z,2.10
2018-12-12T19:13:46.248Z,2.20
2018-12-12T19:16:52.629Z,2.30
2018-12-12T19:19:59.150Z,2.50
2018-12-12T19:23:05.726Z,2.50
2018-12-12T19:26:12.079Z,2.50
2018-12-12T19:29:19.131Z,2.60
2018-12-12T19:32:25.497Z,2.70
2018-12-12T19:35:34.818Z,2.80
2018-12-12T19:38:40.007Z,2.70
2018-12-12T19:41:46.223Z,2.50
2018-12-12T19:44:52.670Z,2.50
2018-12-12T19:47:58.987Z,2.50
2018-12-12T19:51:05.127Z,2.50
2018-12-12T19:54:11.478Z,2.50
2018-12-12T19:57:17.811Z,2.50
2018-12-12T20:00:24.399Z,2.50
2018-12-12T20:03:30.987Z,2.50
2018-12-12T20:06:37.452Z,2.50
2018-12-12T20:09:43.930Z,2.60
2018-12-12T20:12:50.293Z,2.60
2018-12-12T20:15:56.646Z,2.40
2018-12-12T20:19:03.041Z,2.40
2018-12-12T20:22:09.596Z,2.50
2018-12-12T20:25:16.090Z,2.50
2018-12-12T20:28:22.695Z,2.50
2018-12-12T20:31:29.671Z,2.40
2018-12-12T20:34:36.225Z,2.30
2018-12-12T20:37:42.718Z,2.30
2018-12-12T20:40:49.142Z,2.20
2018-12-12T20:43:55.623Z,2.20
2018-12-12T20:47:01.982Z,2.20
2018-12-12T20:50:08.959Z,2.10
2018-12-12T20:53:15.374Z,2.20
2018-12-12T20:56:21.882Z,2.00
2018-12-12T20:59:28.285Z,1.80
2018-12-12T21:02:34.771Z,1.70
2018-12-12T21:05:41.351Z,1.70
2018-12-12T21:08:48.877Z,1.80
2018-12-12T21:11:55.696Z,1.80
2018-12-12T21:15:02.129Z,1.70
2018-12-12T21:18:08.497Z,1.60
2018-12-12T21:21:14.842Z,1.60
2018-12-12T21:24:21.575Z,1.60
2018-12-12T21:27:27.932Z,1.60
2018-12-12T21:30:34.395Z,1.70
2018-12-12T21:33:41.337Z,1.80
2018-12-12T21:36:47.899Z,1.70
2018-12-12T21:39:54.285Z,1.70
2018-12-12T21:43:01.659Z,1.70
2018-12-12T21:46:08.725Z,1.70
2018-12-12T21:49:15.394Z,1.90
2018-12-12T21:52:21.779Z,2.00
2018-12-12T21:55:28.170Z,1.90
2018-12-12T21:58:34.627Z,1.90
2018-12-12T22:01:41.295Z,1.80
2018-12-12T22:04:47.587Z,1.70
2018-12-12T22:07:53.927Z,1.80
2018-12-12T22:11:00.206Z,1.80
2018-12-12T22:14:06.887Z,1.80
2018-12-12T22:17:13.488Z,1.80
2018-12-12T22:20:19.794Z,1.80
2018-12-12T22:23:26.150Z,1.80
2018-12-12T22:26:32.394Z,1.90
2018-12-12T22:29:38.760Z,1.90
2018-12-12T22:32:45.174Z,1.90
2018-12-12T22:35:51.532Z,2.10
2018-12-12T22:38:57.904Z,2.00
2018-12-12T22:42:04.177Z,1.80
2018-12-12T22:45:11.059Z,1.90
2018-12-12T22:48:20.565Z,1.90
2018-12-12T22:51:26.567Z,1.80
2018-12-12T22:54:32.998Z,1.80
2018-12-12T22:57:39.389Z,1.80
2018-12-12T23:00:50.639Z,1.70
2018-12-12T23:03:57.233Z,1.70
2018-12-12T23:07:03.953Z,1.70
2018-12-12T23:10:10.298Z,1.70
2018-12-12T23:13:16.529Z,1.70
2018-12-12T23:16:23.584Z,1.80
2018-12-12T23:19:29.820Z,1.80
2018-12-12T23:22:36.918Z,1.70
2018-12-12T23:25:43.251Z,1.70
2018-12-12T23:28:49.689Z,1.60
2018-12-12T23:31:56.249Z,1.50
2018-12-12T23:35:02.715Z,1.50
2018-12-12T23:38:09.144Z,1.50
2018-12-12T23:41:15.265Z,1.40
2018-12-12T23:44:21.805Z,1.50
2018-12-12T23:47:28.095Z,1.40
2018-12-12T23:50:34.685Z,1.30
2018-12-12T23:53:41.236Z,1.40
2018-12-12T23:56:47.490Z,1.50
2018-12-12T23:59:53.729Z,1.50
